sensor_id;sensor_type;location;lat;lon;timestamp;temperature;humidity
38514;DHT22;24282;48.400;10.808;2023-05-24T00:00:41;15.00;75.50
38514;DHT22;24282;48.400;10.808;2023-05-24T00:03:07;15.00;75.60
38514;DHT22;24282;48.400;10.808;2023-05-24T00:05:33;15.00;75.60
38514;DHT22;24282;48.400;10.808;2023-05-24T00:08:02;15.10;75.20
38514;DHT22;24282;48.400;10.808;2023-05-24T00:10:28;15.00;75.40
38514;DHT22;24282;48.400;10.808;2023-05-24T00:12:54;15.00;75.50
38514;DHT22;24282;48.400;10.808;2023-05-24T00:15:20;15.00;75.60
38514;DHT22;24282;48.400;10.808;2023-05-24T00:17:45;15.00;75.50
38514;DHT22;24282;48.400;10.808;2023-05-24T00:20:11;15.00;75.80
38514;DHT22;24282;48.400;10.808;2023-05-24T00:22:39;14.90;76.00
38514;DHT22;24282;48.400;10.808;2023-05-24T00:25:05;14.90;75.70
38514;DHT22;24282;48.400;10.808;2023-05-24T00:27:31;14.90;75.80
38514;DHT22;24282;48.400;10.808;2023-05-24T00:29:58;14.90;75.90
38514;DHT22;24282;48.400;10.808;2023-05-24T00:32:24;14.90;76.20
38514;DHT22;24282;48.400;10.808;2023-05-24T00:34:50;14.90;75.60
38514;DHT22;24282;48.400;10.808;2023-05-24T00:37:16;14.90;75.70
38514;DHT22;24282;48.400;10.808;2023-05-24T00:39:42;14.90;75.90
38514;DHT22;24282;48.400;10.808;2023-05-24T00:42:09;14.90;76.10
38514;DHT22;24282;48.400;10.808;2023-05-24T00:44:35;14.90;76.30
38514;DHT22;24282;48.400;10.808;2023-05-24T00:47:00;14.90;76.20
38514;DHT22;24282;48.400;10.808;2023-05-24T00:49:26;14.90;76.20
38514;DHT22;24282;48.400;10.808;2023-05-24T00:51:53;14.80;76.20
38514;DHT22;24282;48.400;10.808;2023-05-24T00:54:19;14.80;76.20
38514;DHT22;24282;48.400;10.808;2023-05-24T00:56:46;14.90;76.10
38514;DHT22;24282;48.400;10.808;2023-05-24T00:59:13;14.90;76.00
38514;DHT22;24282;48.400;10.808;2023-05-24T01:01:39;14.90;76.10
38514;DHT22;24282;48.400;10.808;2023-05-24T01:04:06;14.80;75.50
38514;DHT22;24282;48.400;10.808;2023-05-24T01:07:01;14.90;75.80
38514;DHT22;24282;48.400;10.808;2023-05-24T01:09:48;14.80;75.90
38514;DHT22;24282;48.400;10.808;2023-05-24T01:14:57;14.80;75.60
38514;DHT22;24282;48.400;10.808;2023-05-24T01:17:32;14.70;75.20
38514;DHT22;24282;48.400;10.808;2023-05-24T01:20:03;14.70;75.40
38514;DHT22;24282;48.400;10.808;2023-05-24T01:28:18;14.70;75.30
38514;DHT22;24282;48.400;10.808;2023-05-24T01:30:44;14.60;75.50
38514;DHT22;24282;48.400;10.808;2023-05-24T01:33:10;14.70;75.30
38514;DHT22;24282;48.400;10.808;2023-05-24T01:35:38;14.60;75.30
38514;DHT22;24282;48.400;10.808;2023-05-24T01:38:07;14.60;75.40
38514;DHT22;24282;48.400;10.808;2023-05-24T01:40:33;14.60;75.50
38514;DHT22;24282;48.400;10.808;2023-05-24T01:43:13;14.50;75.60
38514;DHT22;24282;48.400;10.808;2023-05-24T01:48:22;14.50;75.40
38514;DHT22;24282;48.400;10.808;2023-05-24T01:50:56;14.50;75.30
38514;DHT22;24282;48.400;10.808;2023-05-24T01:53:25;14.50;75.60
38514;DHT22;24282;48.400;10.808;2023-05-24T01:55:56;14.50;74.70
38514;DHT22;24282;48.400;10.808;2023-05-24T01:58:24;14.40;73.70
38514;DHT22;24282;48.400;10.808;2023-05-24T02:00:51;14.40;73.60
38514;DHT22;24282;48.400;10.808;2023-05-24T02:03:19;14.40;73.80
38514;DHT22;24282;48.400;10.808;2023-05-24T02:05:45;14.40;74.00
38514;DHT22;24282;48.400;10.808;2023-05-24T02:08:11;14.40;74.00
38514;DHT22;24282;48.400;10.808;2023-05-24T02:10:38;14.30;73.60
38514;DHT22;24282;48.400;10.808;2023-05-24T02:13:08;14.30;73.50
38514;DHT22;24282;48.400;10.808;2023-05-24T02:15:34;14.20;72.90
38514;DHT22;24282;48.400;10.808;2023-05-24T02:18:00;14.30;72.60
38514;DHT22;24282;48.400;10.808;2023-05-24T02:20:27;14.20;72.40
38514;DHT22;24282;48.400;10.808;2023-05-24T02:22:56;14.20;72.30
38514;DHT22;24282;48.400;10.808;2023-05-24T02:25:24;14.20;72.30
38514;DHT22;24282;48.400;10.808;2023-05-24T02:27:51;14.10;72.10
38514;DHT22;24282;48.400;10.808;2023-05-24T02:30:17;14.10;72.00
38514;DHT22;24282;48.400;10.808;2023-05-24T02:32:43;14.10;72.40
38514;DHT22;24282;48.400;10.808;2023-05-24T02:35:08;14.00;72.50
38514;DHT22;24282;48.400;10.808;2023-05-24T02:37:34;14.00;72.40
38514;DHT22;24282;48.400;10.808;2023-05-24T02:40:00;14.00;72.40
38514;DHT22;24282;48.400;10.808;2023-05-24T02:42:26;14.00;72.70
38514;DHT22;24282;48.400;10.808;2023-05-24T02:44:51;14.00;72.20
38514;DHT22;24282;48.400;10.808;2023-05-24T02:47:17;14.00;71.80
38514;DHT22;24282;48.400;10.808;2023-05-24T02:49:43;14.00;71.60
38514;DHT22;24282;48.400;10.808;2023-05-24T02:52:09;14.00;71.80
38514;DHT22;24282;48.400;10.808;2023-05-24T02:54:35;13.90;71.70
38514;DHT22;24282;48.400;10.808;2023-05-24T02:57:04;13.90;70.90
38514;DHT22;24282;48.400;10.808;2023-05-24T02:59:31;13.90;70.30
38514;DHT22;24282;48.400;10.808;2023-05-24T03:02:00;13.90;70.20
38514;DHT22;24282;48.400;10.808;2023-05-24T03:04:26;13.80;69.90
38514;DHT22;24282;48.400;10.808;2023-05-24T03:06:54;13.80;70.30
38514;DHT22;24282;48.400;10.808;2023-05-24T03:09:20;13.70;70.10
38514;DHT22;24282;48.400;10.808;2023-05-24T03:11:46;13.70;70.00
38514;DHT22;24282;48.400;10.808;2023-05-24T03:14:11;13.70;69.80
38514;DHT22;24282;48.400;10.808;2023-05-24T03:16:40;13.60;70.30
38514;DHT22;24282;48.400;10.808;2023-05-24T03:19:06;13.60;70.60
38514;DHT22;24282;48.400;10.808;2023-05-24T03:21:31;13.50;70.60
38514;DHT22;24282;48.400;10.808;2023-05-24T03:23:57;13.50;70.70
38514;DHT22;24282;48.400;10.808;2023-05-24T03:26:23;13.40;70.70
38514;DHT22;24282;48.400;10.808;2023-05-24T03:28:49;13.50;70.40
38514;DHT22;24282;48.400;10.808;2023-05-24T03:31:17;13.40;70.30
38514;DHT22;24282;48.400;10.808;2023-05-24T03:33:46;13.40;70.60
38514;DHT22;24282;48.400;10.808;2023-05-24T03:36:12;13.30;70.60
38514;DHT22;24282;48.400;10.808;2023-05-24T03:38:38;13.30;70.70
38514;DHT22;24282;48.400;10.808;2023-05-24T03:41:04;13.30;70.80
38514;DHT22;24282;48.400;10.808;2023-05-24T03:43:31;13.20;70.80
38514;DHT22;24282;48.400;10.808;2023-05-24T03:46:01;13.30;71.00
38514;DHT22;24282;48.400;10.808;2023-05-24T03:48:27;13.20;70.80
38514;DHT22;24282;48.400;10.808;2023-05-24T03:50:52;13.20;70.50
38514;DHT22;24282;48.400;10.808;2023-05-24T03:53:20;13.20;69.90
38514;DHT22;24282;48.400;10.808;2023-05-24T03:55:49;13.20;70.00
38514;DHT22;24282;48.400;10.808;2023-05-24T03:58:16;13.20;69.70
38514;DHT22;24282;48.400;10.808;2023-05-24T04:00:43;13.10;69.90
38514;DHT22;24282;48.400;10.808;2023-05-24T04:03:08;13.00;70.10
38514;DHT22;24282;48.400;10.808;2023-05-24T04:05:35;13.00;70.20
38514;DHT22;24282;48.400;10.808;2023-05-24T04:08:01;13.00;70.20
38514;DHT22;24282;48.400;10.808;2023-05-24T04:10:27;12.90;70.50
38514;DHT22;24282;48.400;10.808;2023-05-24T04:12:53;12.90;70.20
38514;DHT22;24282;48.400;10.808;2023-05-24T04:15:22;12.90;70.20
38514;DHT22;24282;48.400;10.808;2023-05-24T04:17:48;12.90;70.20
38514;DHT22;24282;48.400;10.808;2023-05-24T04:20:21;12.90;70.20
38514;DHT22;24282;48.400;10.808;2023-05-24T04:22:52;12.90;70.10
38514;DHT22;24282;48.400;10.808;2023-05-24T04:25:19;12.90;70.20
38514;DHT22;24282;48.400;10.808;2023-05-24T04:27:44;12.90;70.20
38514;DHT22;24282;48.400;10.808;2023-05-24T04:30:13;12.90;70.60
38514;DHT22;24282;48.400;10.808;2023-05-24T04:32:41;12.80;70.60
38514;DHT22;24282;48.400;10.808;2023-05-24T04:35:10;12.90;70.40
38514;DHT22;24282;48.400;10.808;2023-05-24T04:37:36;12.90;70.50
38514;DHT22;24282;48.400;10.808;2023-05-24T04:40:02;12.90;70.70
38514;DHT22;24282;48.400;10.808;2023-05-24T04:42:30;12.80;70.70
38514;DHT22;24282;48.400;10.808;2023-05-24T04:44:56;12.80;69.90
38514;DHT22;24282;48.400;10.808;2023-05-24T04:47:23;12.80;70.20
38514;DHT22;24282;48.400;10.808;2023-05-24T04:49:48;12.80;70.00
38514;DHT22;24282;48.400;10.808;2023-05-24T04:52:15;12.90;70.20
38514;DHT22;24282;48.400;10.808;2023-05-24T04:54:41;12.90;70.10
38514;DHT22;24282;48.400;10.808;2023-05-24T04:57:07;12.90;70.20
38514;DHT22;24282;48.400;10.808;2023-05-24T04:59:33;12.90;70.40
38514;DHT22;24282;48.400;10.808;2023-05-24T05:01:59;12.90;70.10
38514;DHT22;24282;48.400;10.808;2023-05-24T05:04:25;12.90;70.40
38514;DHT22;24282;48.400;10.808;2023-05-24T05:06:50;12.90;70.00
38514;DHT22;24282;48.400;10.808;2023-05-24T05:09:16;12.90;69.60
38514;DHT22;24282;48.400;10.808;2023-05-24T05:11:45;12.90;69.10
38514;DHT22;24282;48.400;10.808;2023-05-24T05:14:11;12.90;68.50
38514;DHT22;24282;48.400;10.808;2023-05-24T05:16:37;12.90;69.10
38514;DHT22;24282;48.400;10.808;2023-05-24T05:19:03;12.90;68.80
38514;DHT22;24282;48.400;10.808;2023-05-24T05:21:30;12.90;68.70
38514;DHT22;24282;48.400;10.808;2023-05-24T05:23:59;13.00;69.00
38514;DHT22;24282;48.400;10.808;2023-05-24T05:26:26;13.00;69.50
38514;DHT22;24282;48.400;10.808;2023-05-24T05:28:52;13.00;69.20
38514;DHT22;24282;48.400;10.808;2023-05-24T05:31:19;13.00;69.40
38514;DHT22;24282;48.400;10.808;2023-05-24T05:33:49;13.00;69.30
38514;DHT22;24282;48.400;10.808;2023-05-24T05:36:15;13.00;69.30
38514;DHT22;24282;48.400;10.808;2023-05-24T05:38:41;13.10;69.40
38514;DHT22;24282;48.400;10.808;2023-05-24T05:41:06;13.10;68.90
38514;DHT22;24282;48.400;10.808;2023-05-24T05:43:32;13.10;68.80
38514;DHT22;24282;48.400;10.808;2023-05-24T05:45:58;13.10;69.50
38514;DHT22;24282;48.400;10.808;2023-05-24T05:48:25;13.10;69.60
38514;DHT22;24282;48.400;10.808;2023-05-24T05:50:51;13.10;69.60
38514;DHT22;24282;48.400;10.808;2023-05-24T05:53:17;13.20;69.40
38514;DHT22;24282;48.400;10.808;2023-05-24T05:55:43;13.20;69.40
38514;DHT22;24282;48.400;10.808;2023-05-24T05:58:11;13.20;68.50
38514;DHT22;24282;48.400;10.808;2023-05-24T06:00:38;13.30;68.80
38514;DHT22;24282;48.400;10.808;2023-05-24T06:03:04;13.30;68.90
38514;DHT22;24282;48.400;10.808;2023-05-24T06:05:30;13.30;68.20
38514;DHT22;24282;48.400;10.808;2023-05-24T06:07:55;13.30;68.30
38514;DHT22;24282;48.400;10.808;2023-05-24T06:10:21;13.30;68.20
38514;DHT22;24282;48.400;10.808;2023-05-24T06:12:47;13.30;68.80
38514;DHT22;24282;48.400;10.808;2023-05-24T06:15:12;13.30;68.80
38514;DHT22;24282;48.400;10.808;2023-05-24T06:17:38;13.40;68.90
38514;DHT22;24282;48.400;10.808;2023-05-24T06:20:05;13.40;68.50
38514;DHT22;24282;48.400;10.808;2023-05-24T06:22:32;13.40;68.20
38514;DHT22;24282;48.400;10.808;2023-05-24T06:24:58;13.40;68.70
38514;DHT22;24282;48.400;10.808;2023-05-24T06:27:24;13.40;69.70
38514;DHT22;24282;48.400;10.808;2023-05-24T06:29:50;13.50;68.40
38514;DHT22;24282;48.400;10.808;2023-05-24T06:32:15;13.50;68.60
38514;DHT22;24282;48.400;10.808;2023-05-24T06:34:41;13.60;69.10
38514;DHT22;24282;48.400;10.808;2023-05-24T06:37:07;13.70;68.70
38514;DHT22;24282;48.400;10.808;2023-05-24T06:39:35;13.80;69.00
38514;DHT22;24282;48.400;10.808;2023-05-24T06:42:01;13.80;68.90
38514;DHT22;24282;48.400;10.808;2023-05-24T06:44:30;13.90;68.80
38514;DHT22;24282;48.400;10.808;2023-05-24T06:47:02;14.00;68.40
38514;DHT22;24282;48.400;10.808;2023-05-24T06:49:28;14.00;68.30
38514;DHT22;24282;48.400;10.808;2023-05-24T06:51:54;14.10;68.50
38514;DHT22;24282;48.400;10.808;2023-05-24T06:54:20;14.20;67.80
38514;DHT22;24282;48.400;10.808;2023-05-24T06:56:46;14.20;67.30
38514;DHT22;24282;48.400;10.808;2023-05-24T06:59:12;14.10;66.60
38514;DHT22;24282;48.400;10.808;2023-05-24T07:01:38;14.10;66.50
38514;DHT22;24282;48.400;10.808;2023-05-24T07:04:08;14.10;67.00
38514;DHT22;24282;48.400;10.808;2023-05-24T07:06:34;14.10;67.10
38514;DHT22;24282;48.400;10.808;2023-05-24T07:09:02;14.10;67.00
38514;DHT22;24282;48.400;10.808;2023-05-24T07:11:29;14.10;67.00
38514;DHT22;24282;48.400;10.808;2023-05-24T07:13:56;14.00;67.20
38514;DHT22;24282;48.400;10.808;2023-05-24T07:16:22;14.00;67.50
38514;DHT22;24282;48.400;10.808;2023-05-24T07:18:47;14.00;67.50
38514;DHT22;24282;48.400;10.808;2023-05-24T07:21:13;14.00;67.30
38514;DHT22;24282;48.400;10.808;2023-05-24T07:23:39;14.00;67.50
38514;DHT22;24282;48.400;10.808;2023-05-24T07:26:05;14.00;67.40
38514;DHT22;24282;48.400;10.808;2023-05-24T07:28:31;14.00;67.30
38514;DHT22;24282;48.400;10.808;2023-05-24T07:30:57;14.00;67.90
38514;DHT22;24282;48.400;10.808;2023-05-24T07:33:23;14.00;67.80
38514;DHT22;24282;48.400;10.808;2023-05-24T07:35:48;14.00;67.70
38514;DHT22;24282;48.400;10.808;2023-05-24T07:38:17;14.10;67.70
38514;DHT22;24282;48.400;10.808;2023-05-24T07:40:43;14.10;67.50
38514;DHT22;24282;48.400;10.808;2023-05-24T07:43:09;14.20;67.70
38514;DHT22;24282;48.400;10.808;2023-05-24T07:45:34;14.20;67.80
38514;DHT22;24282;48.400;10.808;2023-05-24T07:48:00;14.20;67.30
38514;DHT22;24282;48.400;10.808;2023-05-24T07:50:26;14.30;67.20
38514;DHT22;24282;48.400;10.808;2023-05-24T07:52:55;14.40;66.60
38514;DHT22;24282;48.400;10.808;2023-05-24T07:55:21;14.40;66.40
38514;DHT22;24282;48.400;10.808;2023-05-24T07:57:46;14.40;66.90
38514;DHT22;24282;48.400;10.808;2023-05-24T08:00:12;14.40;66.90
38514;DHT22;24282;48.400;10.808;2023-05-24T08:02:41;14.40;66.90
38514;DHT22;24282;48.400;10.808;2023-05-24T08:05:12;14.50;67.10
38514;DHT22;24282;48.400;10.808;2023-05-24T08:07:38;14.50;67.10
38514;DHT22;24282;48.400;10.808;2023-05-24T08:10:05;14.60;66.20
38514;DHT22;24282;48.400;10.808;2023-05-24T08:12:31;14.60;65.60
38514;DHT22;24282;48.400;10.808;2023-05-24T08:14:57;14.70;65.30
38514;DHT22;24282;48.400;10.808;2023-05-24T08:17:23;14.80;65.10
38514;DHT22;24282;48.400;10.808;2023-05-24T08:19:49;14.70;64.90
38514;DHT22;24282;48.400;10.808;2023-05-24T08:22:15;14.80;64.70
38514;DHT22;24282;48.400;10.808;2023-05-24T08:24:41;14.80;64.60
38514;DHT22;24282;48.400;10.808;2023-05-24T08:27:06;14.90;63.70
38514;DHT22;24282;48.400;10.808;2023-05-24T08:29:34;14.90;63.30
38514;DHT22;24282;48.400;10.808;2023-05-24T08:32:00;14.90;63.20
38514;DHT22;24282;48.400;10.808;2023-05-24T08:34:25;14.90;63.00
38514;DHT22;24282;48.400;10.808;2023-05-24T08:36:52;14.90;63.00
38514;DHT22;24282;48.400;10.808;2023-05-24T08:39:19;14.80;63.40
38514;DHT22;24282;48.400;10.808;2023-05-24T08:41:45;14.80;63.70
38514;DHT22;24282;48.400;10.808;2023-05-24T08:44:12;14.80;63.30
38514;DHT22;24282;48.400;10.808;2023-05-24T08:46:38;14.80;63.30
38514;DHT22;24282;48.400;10.808;2023-05-24T08:49:04;14.80;64.00
38514;DHT22;24282;48.400;10.808;2023-05-24T08:51:32;14.80;64.30
38514;DHT22;24282;48.400;10.808;2023-05-24T08:53:59;14.80;64.00
38514;DHT22;24282;48.400;10.808;2023-05-24T08:56:25;14.80;64.10
38514;DHT22;24282;48.400;10.808;2023-05-24T08:58:53;14.80;64.10
38514;DHT22;24282;48.400;10.808;2023-05-24T09:01:19;14.80;63.70
38514;DHT22;24282;48.400;10.808;2023-05-24T09:03:46;14.80;63.20
38514;DHT22;24282;48.400;10.808;2023-05-24T09:06:15;14.90;62.80
38514;DHT22;24282;48.400;10.808;2023-05-24T09:08:41;14.90;62.80
38514;DHT22;24282;48.400;10.808;2023-05-24T09:11:07;14.90;62.80
38514;DHT22;24282;48.400;10.808;2023-05-24T09:13:34;15.00;62.20
38514;DHT22;24282;48.400;10.808;2023-05-24T09:16:00;15.10;61.20
38514;DHT22;24282;48.400;10.808;2023-05-24T09:18:26;15.10;60.70
38514;DHT22;24282;48.400;10.808;2023-05-24T09:20:52;15.10;63.70
38514;DHT22;24282;48.400;10.808;2023-05-24T09:23:18;15.20;64.80
38514;DHT22;24282;48.400;10.808;2023-05-24T09:25:45;15.20;63.00
38514;DHT22;24282;48.400;10.808;2023-05-24T09:28:16;15.30;62.20
38514;DHT22;24282;48.400;10.808;2023-05-24T09:30:57;15.40;60.90
38514;DHT22;24282;48.400;10.808;2023-05-24T09:33:22;15.50;60.60
38514;DHT22;24282;48.400;10.808;2023-05-24T09:36:00;15.60;60.20
38514;DHT22;24282;48.400;10.808;2023-05-24T09:38:26;15.70;60.00
38514;DHT22;24282;48.400;10.808;2023-05-24T09:41:06;15.90;58.60
38514;DHT22;24282;48.400;10.808;2023-05-24T09:43:34;15.90;57.40
38514;DHT22;24282;48.400;10.808;2023-05-24T09:46:03;16.00;58.30
38514;DHT22;24282;48.400;10.808;2023-05-24T09:48:30;16.00;58.30
38514;DHT22;24282;48.400;10.808;2023-05-24T09:53:31;16.00;57.80
38514;DHT22;24282;48.400;10.808;2023-05-24T09:55:59;15.90;57.10
38514;DHT22;24282;48.400;10.808;2023-05-24T09:58:30;15.90;56.80
38514;DHT22;24282;48.400;10.808;2023-05-24T10:01:06;16.00;56.80
38514;DHT22;24282;48.400;10.808;2023-05-24T10:03:33;16.00;56.00
38514;DHT22;24282;48.400;10.808;2023-05-24T10:06:00;15.90;55.70
38514;DHT22;24282;48.400;10.808;2023-05-24T10:08:30;15.90;56.00
38514;DHT22;24282;48.400;10.808;2023-05-24T10:10:56;15.90;55.90
38514;DHT22;24282;48.400;10.808;2023-05-24T10:13:22;16.00;56.10
38514;DHT22;24282;48.400;10.808;2023-05-24T10:15:48;16.10;55.60
38514;DHT22;24282;48.400;10.808;2023-05-24T10:18:13;16.20;55.50
38514;DHT22;24282;48.400;10.808;2023-05-24T10:20:39;16.40;54.50
38514;DHT22;24282;48.400;10.808;2023-05-24T10:23:08;16.40;54.90
38514;DHT22;24282;48.400;10.808;2023-05-24T10:25:40;16.40;55.00
38514;DHT22;24282;48.400;10.808;2023-05-24T10:28:11;16.40;54.60
38514;DHT22;24282;48.400;10.808;2023-05-24T10:33:18;16.50;55.10
38514;DHT22;24282;48.400;10.808;2023-05-24T10:35:46;16.60;55.10
38514;DHT22;24282;48.400;10.808;2023-05-24T10:38:13;16.70;55.40
38514;DHT22;24282;48.400;10.808;2023-05-24T10:40:42;16.80;55.80
38514;DHT22;24282;48.400;10.808;2023-05-24T10:43:08;16.90;55.20
38514;DHT22;24282;48.400;10.808;2023-05-24T10:45:39;16.80;55.00
38514;DHT22;24282;48.400;10.808;2023-05-24T10:50:40;16.80;55.10
38514;DHT22;24282;48.400;10.808;2023-05-24T10:53:14;16.80;55.20
38514;DHT22;24282;48.400;10.808;2023-05-24T10:56:00;16.80;55.30
38514;DHT22;24282;48.400;10.808;2023-05-24T10:58:58;16.80;55.00
38514;DHT22;24282;48.400;10.808;2023-05-24T11:01:28;16.80;54.20
38514;DHT22;24282;48.400;10.808;2023-05-24T11:04:11;16.80;54.40
38514;DHT22;24282;48.400;10.808;2023-05-24T11:09:15;16.90;53.70
38514;DHT22;24282;48.400;10.808;2023-05-24T11:11:43;17.00;53.90
38514;DHT22;24282;48.400;10.808;2023-05-24T11:14:11;17.00;54.50
38514;DHT22;24282;48.400;10.808;2023-05-24T11:16:38;17.20;53.80
38514;DHT22;24282;48.400;10.808;2023-05-24T11:19:11;17.30;53.80
38514;DHT22;24282;48.400;10.808;2023-05-24T11:21:39;17.40;53.60
38514;DHT22;24282;48.400;10.808;2023-05-24T11:24:07;17.50;52.20
38514;DHT22;24282;48.400;10.808;2023-05-24T11:26:34;17.60;52.00
38514;DHT22;24282;48.400;10.808;2023-05-24T11:29:00;17.60;52.20
38514;DHT22;24282;48.400;10.808;2023-05-24T11:31:28;17.70;52.70
38514;DHT22;24282;48.400;10.808;2023-05-24T11:33:54;17.70;52.00
38514;DHT22;24282;48.400;10.808;2023-05-24T11:36:20;17.70;52.20
38514;DHT22;24282;48.400;10.808;2023-05-24T11:38:46;17.80;52.50
38514;DHT22;24282;48.400;10.808;2023-05-24T11:41:16;17.90;52.30
38514;DHT22;24282;48.400;10.808;2023-05-24T11:43:43;17.90;52.70
38514;DHT22;24282;48.400;10.808;2023-05-24T11:46:09;17.80;51.70
38514;DHT22;24282;48.400;10.808;2023-05-24T11:48:35;17.80;52.10
38514;DHT22;24282;48.400;10.808;2023-05-24T11:51:01;17.80;51.30
38514;DHT22;24282;48.400;10.808;2023-05-24T11:53:29;17.80;51.40
38514;DHT22;24282;48.400;10.808;2023-05-24T11:55:56;17.90;51.50
38514;DHT22;24282;48.400;10.808;2023-05-24T11:58:22;17.90;51.80
38514;DHT22;24282;48.400;10.808;2023-05-24T12:00:50;17.90;50.70
38514;DHT22;24282;48.400;10.808;2023-05-24T12:03:16;17.90;50.60
38514;DHT22;24282;48.400;10.808;2023-05-24T12:05:42;17.90;49.40
38514;DHT22;24282;48.400;10.808;2023-05-24T12:08:12;17.80;49.80
38514;DHT22;24282;48.400;10.808;2023-05-24T12:10:41;17.70;50.00
38514;DHT22;24282;48.400;10.808;2023-05-24T12:13:20;17.70;48.30
38514;DHT22;24282;48.400;10.808;2023-05-24T12:15:52;17.70;48.20
38514;DHT22;24282;48.400;10.808;2023-05-24T12:18:19;17.70;49.00
38514;DHT22;24282;48.400;10.808;2023-05-24T12:20:49;17.90;49.80
38514;DHT22;24282;48.400;10.808;2023-05-24T12:23:18;18.00;49.00
38514;DHT22;24282;48.400;10.808;2023-05-24T12:25:44;18.20;49.10
38514;DHT22;24282;48.400;10.808;2023-05-24T12:28:11;18.20;49.70
38514;DHT22;24282;48.400;10.808;2023-05-24T12:30:37;18.30;49.40
38514;DHT22;24282;48.400;10.808;2023-05-24T12:33:08;18.40;49.60
38514;DHT22;24282;48.400;10.808;2023-05-24T12:35:34;18.60;49.50
38514;DHT22;24282;48.400;10.808;2023-05-24T12:38:00;18.70;49.10
38514;DHT22;24282;48.400;10.808;2023-05-24T12:40:26;18.70;49.20
38514;DHT22;24282;48.400;10.808;2023-05-24T12:42:53;18.70;49.10
38514;DHT22;24282;48.400;10.808;2023-05-24T12:45:23;18.80;49.10
38514;DHT22;24282;48.400;10.808;2023-05-24T12:47:51;18.90;46.40
38514;DHT22;24282;48.400;10.808;2023-05-24T12:50:18;19.10;47.40
38514;DHT22;24282;48.400;10.808;2023-05-24T12:52:44;19.20;47.50
38514;DHT22;24282;48.400;10.808;2023-05-24T12:55:15;19.30;47.80
38514;DHT22;24282;48.400;10.808;2023-05-24T12:57:42;19.60;48.90
38514;DHT22;24282;48.400;10.808;2023-05-24T13:00:09;19.80;48.10
38514;DHT22;24282;48.400;10.808;2023-05-24T13:02:39;20.00;46.30
38514;DHT22;24282;48.400;10.808;2023-05-24T13:05:06;20.10;45.50
38514;DHT22;24282;48.400;10.808;2023-05-24T13:07:32;20.20;45.30
38514;DHT22;24282;48.400;10.808;2023-05-24T13:09:58;20.00;45.10
38514;DHT22;24282;48.400;10.808;2023-05-24T13:12:24;19.80;45.60
38514;DHT22;24282;48.400;10.808;2023-05-24T13:14:51;19.60;46.50
38514;DHT22;24282;48.400;10.808;2023-05-24T13:17:17;19.40;47.20
38514;DHT22;24282;48.400;10.808;2023-05-24T13:19:43;19.30;47.90
38514;DHT22;24282;48.400;10.808;2023-05-24T13:24:59;19.10;49.20
38514;DHT22;24282;48.400;10.808;2023-05-24T13:27:24;19.00;49.50
38514;DHT22;24282;48.400;10.808;2023-05-24T13:29:51;18.90;49.20
38514;DHT22;24282;48.400;10.808;2023-05-24T13:32:17;18.80;48.80
38514;DHT22;24282;48.400;10.808;2023-05-24T13:34:43;18.70;48.70
38514;DHT22;24282;48.400;10.808;2023-05-24T13:37:09;18.50;49.40
38514;DHT22;24282;48.400;10.808;2023-05-24T13:39:36;18.40;49.50
38514;DHT22;24282;48.400;10.808;2023-05-24T13:42:03;18.30;49.60
38514;DHT22;24282;48.400;10.808;2023-05-24T13:44:29;18.10;49.00
38514;DHT22;24282;48.400;10.808;2023-05-24T13:46:55;18.00;50.40
38514;DHT22;24282;48.400;10.808;2023-05-24T13:49:21;17.90;51.00
38514;DHT22;24282;48.400;10.808;2023-05-24T13:51:47;17.90;51.20
38514;DHT22;24282;48.400;10.808;2023-05-24T13:54:14;17.80;51.20
38514;DHT22;24282;48.400;10.808;2023-05-24T13:56:39;17.80;50.80
38514;DHT22;24282;48.400;10.808;2023-05-24T13:59:07;17.70;50.40
38514;DHT22;24282;48.400;10.808;2023-05-24T14:01:33;17.60;50.60
38514;DHT22;24282;48.400;10.808;2023-05-24T14:04:01;17.60;51.00
38514;DHT22;24282;48.400;10.808;2023-05-24T14:06:26;17.60;50.70
38514;DHT22;24282;48.400;10.808;2023-05-24T14:08:52;17.60;51.00
38514;DHT22;24282;48.400;10.808;2023-05-24T14:11:18;17.50;51.20
38514;DHT22;24282;48.400;10.808;2023-05-24T14:13:44;17.50;51.50
38514;DHT22;24282;48.400;10.808;2023-05-24T14:16:10;17.50;52.20
38514;DHT22;24282;48.400;10.808;2023-05-24T14:18:35;17.40;52.40
38514;DHT22;24282;48.400;10.808;2023-05-24T14:21:01;17.40;54.00
38514;DHT22;24282;48.400;10.808;2023-05-24T14:23:27;17.40;54.30
38514;DHT22;24282;48.400;10.808;2023-05-24T14:25:56;17.40;54.10
38514;DHT22;24282;48.400;10.808;2023-05-24T14:28:22;17.20;53.20
38514;DHT22;24282;48.400;10.808;2023-05-24T14:30:48;17.00;54.70
38514;DHT22;24282;48.400;10.808;2023-05-24T14:33:14;16.90;55.40
38514;DHT22;24282;48.400;10.808;2023-05-24T14:35:40;16.90;54.70
38514;DHT22;24282;48.400;10.808;2023-05-24T14:38:06;16.80;55.20
38514;DHT22;24282;48.400;10.808;2023-05-24T14:40:33;16.70;54.90
38514;DHT22;24282;48.400;10.808;2023-05-24T14:43:03;16.70;55.50
38514;DHT22;24282;48.400;10.808;2023-05-24T14:45:28;16.70;55.30
38514;DHT22;24282;48.400;10.808;2023-05-24T14:47:54;16.60;55.30
38514;DHT22;24282;48.400;10.808;2023-05-24T14:50:21;16.60;56.20
38514;DHT22;24282;48.400;10.808;2023-05-24T14:52:47;16.60;55.90
38514;DHT22;24282;48.400;10.808;2023-05-24T14:55:13;16.60;56.20
38514;DHT22;24282;48.400;10.808;2023-05-24T14:57:39;16.70;55.20
38514;DHT22;24282;48.400;10.808;2023-05-24T15:00:07;16.70;55.00
38514;DHT22;24282;48.400;10.808;2023-05-24T15:02:33;16.80;55.60
38514;DHT22;24282;48.400;10.808;2023-05-24T15:04:59;16.80;56.00
38514;DHT22;24282;48.400;10.808;2023-05-24T15:07:25;16.80;55.20
38514;DHT22;24282;48.400;10.808;2023-05-24T15:09:51;16.90;54.30
38514;DHT22;24282;48.400;10.808;2023-05-24T15:12:17;16.80;54.70
38514;DHT22;24282;48.400;10.808;2023-05-24T15:14:43;16.70;54.60
38514;DHT22;24282;48.400;10.808;2023-05-24T15:17:09;16.70;54.30
38514;DHT22;24282;48.400;10.808;2023-05-24T15:19:36;16.70;54.60
38514;DHT22;24282;48.400;10.808;2023-05-24T15:22:01;16.60;53.40
38514;DHT22;24282;48.400;10.808;2023-05-24T15:24:27;16.50;53.80
38514;DHT22;24282;48.400;10.808;2023-05-24T15:26:53;16.40;54.60
38514;DHT22;24282;48.400;10.808;2023-05-24T15:29:19;16.30;54.20
38514;DHT22;24282;48.400;10.808;2023-05-24T15:31:45;16.20;54.40
38514;DHT22;24282;48.400;10.808;2023-05-24T15:34:11;16.00;54.80
38514;DHT22;24282;48.400;10.808;2023-05-24T15:36:37;15.90;54.80
38514;DHT22;24282;48.400;10.808;2023-05-24T15:39:03;15.90;55.80